createdAt,value
2022-09-12T00:02:21.992Z,52.90
2022-09-12T00:04:48.984Z,52.90
2022-09-12T00:07:16.100Z,52.90
2022-09-12T00:09:43.026Z,53.20
2022-09-12T00:12:10.902Z,53.10
2022-09-12T00:14:37.770Z,52.90
2022-09-12T00:17:04.697Z,53.20
2022-09-12T00:19:34.400Z,53.20
2022-09-12T00:22:02.389Z,52.80
2022-09-12T00:24:29.225Z,53.20
2022-09-12T00:26:56.079Z,53.20
2022-09-12T00:29:22.902Z,53.60
2022-09-12T00:31:49.981Z,54.00
2022-09-12T00:34:17.071Z,54.10
2022-09-12T00:36:43.980Z,54.40
2022-09-12T00:39:15.520Z,54.20
2022-09-12T00:41:42.384Z,54.10
2022-09-12T00:44:24.323Z,53.90
2022-09-12T00:47:02.265Z,54.10
2022-09-12T00:50:12.812Z,54.00
2022-09-12T00:52:57.917Z,54.20
2022-09-12T00:55:41.152Z,54.40
2022-09-12T00:58:22.220Z,55.00
2022-09-12T01:00:49.339Z,54.60
2022-09-12T01:03:19.483Z,55.20
2022-09-12T01:06:02.698Z,55.50
2022-09-12T01:08:29.859Z,55.10
2022-09-12T01:10:57.827Z,55.80
2022-09-12T01:13:24.993Z,55.60
2022-09-12T01:15:52.992Z,55.70
2022-09-12T01:18:42.273Z,55.80
2022-09-12T01:21:15.346Z,55.40
2022-09-12T01:24:17.587Z,55.90
2022-09-12T01:27:02.912Z,55.10
2022-09-12T01:29:45.311Z,55.90
2022-09-12T01:32:37.995Z,55.70
2022-09-12T01:35:29.023Z,56.10
2022-09-12T01:38:22.170Z,56.40
2022-09-12T01:41:15.118Z,56.30
2022-09-12T01:43:57.925Z,56.10
2022-09-12T01:46:36.674Z,56.80
2022-09-12T01:49:15.203Z,57.00
2022-09-12T01:51:52.296Z,56.50
2022-09-12T01:54:53.552Z,56.50
2022-09-12T01:57:29.986Z,56.00
2022-09-12T02:00:01.752Z,55.60
2022-09-12T02:02:35.412Z,55.80
2022-09-12T02:05:18.852Z,55.70
2022-09-12T02:07:57.215Z,55.50
2022-09-12T02:10:32.525Z,55.50
2022-09-12T02:13:11.776Z,55.50
2022-09-12T02:15:43.299Z,55.30
2022-09-12T02:18:14.570Z,55.80
2022-09-12T02:20:50.514Z,55.60
2022-09-12T02:23:27.922Z,55.80
2022-09-12T02:26:05.771Z,55.50
2022-09-12T02:28:37.004Z,56.00
2022-09-12T02:31:32.360Z,56.50
2022-09-12T02:34:05.668Z,56.30
2022-09-12T02:36:32.891Z,56.20
2022-09-12T02:39:00.336Z,56.50
2022-09-12T02:41:27.545Z,56.30
2022-09-12T02:43:54.639Z,56.40
2022-09-12T02:46:26.888Z,56.70
2022-09-12T02:48:54.380Z,56.70
2022-09-12T02:51:23.843Z,56.90
2022-09-12T02:53:51.319Z,57.20
2022-09-12T02:56:27.188Z,57.00
2022-09-12T02:58:55.933Z,57.90
2022-09-12T03:01:53.050Z,58.70
2022-09-12T03:04:30.962Z,58.20
2022-09-12T03:06:57.766Z,58.80
2022-09-12T03:10:05.390Z,58.80
2022-09-12T03:12:32.347Z,58.60
2022-09-12T03:15:20.699Z,59.30
2022-09-12T03:17:56.536Z,59.20
2022-09-12T03:20:35.509Z,59.10
2022-09-12T03:23:09.649Z,59.50
2022-09-12T03:25:44.388Z,59.10
2022-09-12T03:28:16.690Z,59.20
2022-09-12T03:30:46.088Z,58.90
2022-09-12T03:33:14.517Z,59.00
2022-09-12T03:35:42.242Z,58.50
2022-09-12T03:38:09.116Z,58.70
2022-09-12T03:40:36.792Z,59.00
2022-09-12T03:43:04.633Z,58.60
2022-09-12T03:45:31.713Z,58.50
2022-09-12T03:47:58.561Z,58.10
2022-09-12T03:50:25.854Z,57.80
2022-09-12T03:52:52.705Z,57.90
2022-09-12T03:55:19.790Z,57.20
2022-09-12T03:57:46.652Z,56.90
2022-09-12T04:00:19.086Z,57.20
2022-09-12T04:02:46.608Z,56.80
2022-09-12T04:05:13.439Z,57.10
2022-09-12T04:07:40.289Z,57.10
2022-09-12T04:10:07.670Z,56.90
2022-09-12T04:12:36.115Z,57.10
2022-09-12T04:15:03.046Z,56.20
2022-09-12T04:17:29.787Z,56.80
2022-09-12T04:19:56.591Z,56.20
2022-09-12T04:22:23.889Z,56.70
2022-09-12T04:24:50.712Z,56.60
2022-09-12T04:27:17.532Z,56.50
2022-09-12T04:29:44.400Z,56.50
2022-09-12T04:32:11.247Z,56.90
2022-09-12T04:34:38.090Z,56.50
2022-09-12T04:37:05.076Z,56.70
2022-09-12T04:39:31.985Z,56.60
2022-09-12T04:41:58.781Z,56.70
2022-09-12T04:44:25.645Z,56.60
2022-09-12T04:46:52.856Z,56.70
2022-09-12T04:49:19.726Z,56.60
2022-09-12T04:51:46.692Z,56.70
2022-09-12T04:54:16.575Z,56.90
2022-09-12T04:56:46.669Z,56.50
2022-09-12T04:59:15.919Z,56.70
2022-09-12T05:01:43.273Z,56.70
2022-09-12T05:04:12.035Z,56.70
2022-09-12T05:06:40.904Z,57.00
2022-09-12T05:09:11.681Z,56.70
2022-09-12T05:12:03.392Z,56.90
2022-09-12T05:14:28.615Z,57.10
2022-09-12T05:16:59.803Z,57.10
2022-09-12T05:19:27.406Z,56.90
2022-09-12T05:21:54.443Z,57.30
2022-09-12T05:24:21.259Z,56.90
2022-09-12T05:26:48.349Z,57.50
2022-09-12T05:29:15.198Z,57.20
2022-09-12T05:31:42.171Z,57.20
2022-09-12T05:34:10.309Z,57.20
2022-09-12T05:36:37.512Z,57.00
2022-09-12T05:39:04.886Z,57.30
2022-09-12T05:41:33.853Z,57.10
2022-09-12T05:44:02.929Z,57.50
2022-09-12T05:46:32.610Z,57.50
2022-09-12T05:49:04.487Z,56.90
2022-09-12T05:51:35.964Z,57.40
2022-09-12T05:54:04.105Z,57.30
2022-09-12T05:56:34.405Z,57.30
2022-09-12T05:59:03.786Z,57.40
2022-09-12T06:01:32.274Z,57.60
2022-09-12T06:04:01.011Z,58.00
2022-09-12T06:06:29.332Z,58.30
2022-09-12T06:09:01.516Z,58.00
2022-09-12T06:11:31.122Z,57.90
2022-09-12T06:13:58.544Z,57.90
2022-09-12T06:16:28.233Z,58.60
2022-09-12T06:19:00.865Z,58.50
2022-09-12T06:21:28.767Z,57.90
2022-09-12T06:23:55.808Z,58.10
2022-09-12T06:26:25.808Z,58.00
2022-09-12T06:28:57.617Z,58.10
2022-09-12T06:31:28.809Z,58.10
2022-09-12T06:33:59.292Z,58.00
2022-09-12T06:36:30.092Z,58.30
2022-09-12T06:39:05.691Z,58.60
2022-09-12T06:41:33.535Z,58.60
2022-09-12T06:44:01.206Z,58.90
2022-09-12T06:46:28.668Z,59.30
2022-09-12T06:49:00.696Z,59.00
2022-09-12T06:51:28.607Z,58.70
2022-09-12T06:53:57.134Z,58.50
2022-09-12T06:56:26.687Z,59.50
2022-09-12T06:58:55.774Z,59.40
2022-09-12T07:01:24.826Z,59.50
2022-09-12T07:03:54.367Z,59.20
2022-09-12T07:06:24.209Z,59.40
2022-09-12T07:08:51.125Z,59.90
2022-09-12T07:11:24.803Z,59.90
2022-09-12T07:13:53.853Z,59.90
2022-09-12T07:16:21.056Z,60.10
2022-09-12T07:18:55.653Z,60.30
2022-09-12T07:21:23.127Z,60.50
2022-09-12T07:23:52.011Z,60.60
2022-09-12T07:26:19.283Z,60.70
2022-09-12T07:28:50.574Z,61.00
2022-09-12T07:31:19.854Z,60.90
2022-09-12T07:33:51.165Z,60.90
2022-09-12T07:36:23.306Z,61.30
2022-09-12T07:38:57.890Z,61.80
2022-09-12T07:41:30.437Z,61.60
2022-09-12T07:43:59.477Z,61.50
2022-09-12T07:46:29.191Z,61.60
2022-09-12T07:48:57.842Z,61.70
2022-09-12T07:51:27.835Z,61.70
2022-09-12T07:53:56.344Z,61.70
2022-09-12T07:56:29.353Z,61.40
2022-09-12T07:58:57.038Z,61.70
2022-09-12T08:01:24.485Z,61.30
2022-09-12T08:03:58.849Z,61.10
2022-09-12T08:06:30.343Z,60.70
2022-09-12T08:08:59.677Z,60.70
2022-09-12T08:11:28.634Z,60.30
2022-09-12T08:13:57.388Z,58.80
2022-09-12T08:16:27.328Z,58.10
2022-09-12T08:18:54.576Z,56.80
2022-09-12T08:21:24.133Z,56.90
2022-09-12T08:24:12.547Z,56.00
2022-09-12T08:26:39.353Z,55.30
2022-09-12T08:29:06.216Z,53.20
2022-09-12T08:31:36.573Z,53.20
2022-09-12T08:34:06.635Z,53.20
2022-09-12T08:36:34.510Z,52.70
2022-09-12T08:39:07.347Z,51.40
2022-09-12T08:41:41.522Z,48.90
2022-09-12T08:44:45.392Z,48.20
2022-09-12T08:47:38.195Z,49.00
2022-09-12T08:50:11.709Z,48.60
2022-09-12T08:52:47.994Z,47.30
2022-09-12T08:55:24.871Z,44.80
2022-09-12T08:57:52.191Z,45.90
2022-09-12T09:00:20.396Z,44.10
2022-09-12T09:02:47.308Z,44.60
2022-09-12T09:05:44.248Z,42.50
2022-09-12T09:08:29.223Z,42.80
2022-09-12T09:11:17.821Z,42.90
2022-09-12T09:14:22.007Z,42.30
2022-09-12T09:16:51.071Z,41.10
2022-09-12T09:19:28.062Z,40.00
2022-09-12T09:22:06.601Z,40.20
2022-09-12T09:24:56.229Z,38.80
2022-09-12T09:27:39.838Z,38.60
2022-09-12T09:30:17.849Z,38.00
2022-09-12T09:32:51.529Z,37.80
2022-09-12T09:35:31.206Z,36.80
2022-09-12T09:38:22.410Z,36.30
2022-09-12T09:41:33.304Z,36.20
2022-09-12T09:44:00.977Z,36.20
2022-09-12T09:46:28.205Z,35.10
2022-09-12T09:48:56.407Z,33.90
2022-09-12T09:51:33.577Z,33.00
2022-09-12T09:54:33.695Z,33.90
2022-09-12T09:57:00.709Z,33.20
2022-09-12T09:59:27.454Z,31.40
2022-09-12T10:01:55.832Z,31.10
2022-09-12T10:04:28.965Z,30.50
2022-09-12T10:07:04.455Z,30.50
2022-09-12T10:09:34.774Z,30.20
2022-09-12T10:12:20.074Z,28.40
2022-09-12T10:15:01.057Z,28.70
2022-09-12T10:17:35.055Z,29.20
2022-09-12T10:20:21.392Z,28.10
2022-09-12T10:22:49.656Z,27.10
2022-09-12T10:25:18.911Z,27.40
2022-09-12T10:27:57.066Z,27.50
2022-09-12T10:30:25.899Z,27.90
2022-09-12T10:32:54.194Z,26.60
2022-09-12T10:35:22.668Z,26.60
2022-09-12T10:38:06.047Z,26.10
2022-09-12T10:40:40.847Z,26.70
2022-09-12T10:43:25.829Z,26.60
2022-09-12T10:45:58.094Z,25.60
2022-09-12T10:48:32.686Z,26.00
2022-09-12T10:51:02.189Z,26.30
2022-09-12T10:53:44.638Z,25.00
2022-09-12T10:56:18.428Z,24.50
2022-09-12T10:59:06.438Z,25.00
2022-09-12T11:01:36.412Z,24.70
2022-09-12T11:04:26.663Z,24.20
2022-09-12T11:07:15.105Z,24.00
2022-09-12T11:09:48.203Z,24.00
2022-09-12T11:12:33.592Z,23.70
2022-09-12T11:15:37.921Z,24.90
2022-09-12T11:18:25.041Z,23.90
2022-09-12T11:21:10.064Z,22.60
2022-09-12T11:23:48.782Z,21.50
2022-09-12T11:26:24.514Z,21.60
2022-09-12T11:29:24.094Z,20.50
2022-09-12T11:32:03.300Z,20.50
2022-09-12T11:34:49.764Z,19.60
2022-09-12T11:37:45.379Z,19.00
2022-09-12T11:40:44.044Z,19.20
2022-09-12T11:43:52.420Z,19.40
2022-09-12T11:46:31.315Z,19.70
2022-09-12T11:49:33.556Z,18.60
2022-09-12T11:52:23.940Z,19.40
2022-09-12T11:55:17.803Z,18.30
2022-09-12T11:57:53.041Z,17.50
2022-09-12T12:00:32.973Z,17.00
2022-09-12T12:03:08.520Z,16.10
2022-09-12T12:05:53.563Z,16.50
2022-09-12T12:08:25.264Z,16.60
2022-09-12T12:11:03.271Z,16.10
2022-09-12T12:13:54.025Z,15.20
2022-09-12T12:16:29.947Z,15.60
2022-09-12T12:19:10.756Z,15.40
2022-09-12T12:21:49.247Z,15.60
2022-09-12T12:24:25.099Z,16.10
2022-09-12T12:26:59.273Z,15.90
2022-09-12T12:29:35.173Z,15.90
2022-09-12T12:32:04.836Z,16.30
2022-09-12T12:34:37.274Z,16.30
2022-09-12T12:37:28.157Z,15.60
2022-09-12T12:40:08.774Z,15.80
2022-09-12T12:42:35.699Z,16.50
2022-09-12T12:45:17.917Z,16.20
2022-09-12T12:47:47.592Z,16.20
2022-09-12T12:50:21.824Z,15.60
2022-09-12T12:52:50.364Z,15.60
2022-09-12T12:55:45.705Z,15.90
2022-09-12T12:58:35.124Z,16.20
2022-09-12T13:01:07.947Z,15.30
2022-09-12T13:03:35.281Z,15.00
2022-09-12T13:06:08.188Z,16.10
2022-09-12T13:08:38.992Z,16.00
2022-09-12T13:11:05.763Z,15.30
2022-09-12T13:13:41.193Z,15.20
2022-09-12T13:16:11.320Z,13.60
2022-09-12T13:18:48.300Z,13.40
2022-09-12T13:21:22.320Z,12.60
2022-09-12T13:24:12.917Z,11.90
2022-09-12T13:26:46.140Z,11.30
2022-09-12T13:29:16.192Z,10.40
2022-09-12T13:31:47.460Z,9.40
2022-09-12T13:34:27.356Z,9.00
2022-09-12T13:37:03.285Z,9.60
2022-09-12T13:39:41.156Z,8.60
2022-09-12T13:42:29.293Z,8.70
2022-09-12T13:45:20.311Z,8.20
2022-09-12T13:47:56.626Z,8.40
2022-09-12T13:50:28.933Z,7.30
2022-09-12T13:53:00.067Z,7.40
2022-09-12T13:55:33.463Z,7.10
2022-09-12T13:58:06.222Z,6.80
2022-09-12T14:00:35.106Z,6.20
2022-09-12T14:03:31.797Z,6.10
2022-09-12T14:05:59.194Z,6.40
2022-09-12T14:08:27.064Z,7.80
2022-09-12T14:10:54.789Z,7.90
2022-09-12T14:13:32.231Z,7.40
2022-09-12T14:15:59.883Z,8.00
2022-09-12T14:18:36.295Z,8.10
2022-09-12T14:21:11.332Z,8.70
2022-09-12T14:23:43.155Z,9.00
2022-09-12T14:26:22.140Z,8.90
2022-09-12T14:28:49.611Z,9.10
2022-09-12T14:31:25.064Z,10.30
2022-09-12T14:34:11.094Z,10.60
2022-09-12T14:36:41.145Z,10.40
2022-09-12T14:39:18.322Z,10.30
2022-09-12T14:41:46.596Z,10.80
2022-09-12T14:44:23.479Z,10.30
2022-09-12T14:46:51.199Z,10.10
2022-09-12T14:49:21.248Z,10.30
2022-09-12T14:52:15.551Z,10.40
2022-09-12T14:54:44.774Z,11.60
2022-09-12T14:57:34.560Z,11.80
2022-09-12T15:00:13.538Z,12.00
2022-09-12T15:02:42.533Z,12.00
2022-09-12T15:05:09.892Z,13.50
2022-09-12T15:07:39.987Z,13.90
2022-09-12T15:10:18.732Z,14.00
2022-09-12T15:12:45.560Z,14.60
2022-09-12T15:15:20.101Z,14.80
2022-09-12T15:17:47.442Z,16.30
2022-09-12T15:20:14.806Z,16.20
2022-09-12T15:22:42.484Z,15.70
2022-09-12T15:25:12.435Z,15.90
2022-09-12T15:27:42.367Z,16.40
2022-09-12T15:30:10.405Z,15.90
2022-09-12T15:32:37.639Z,16.40
2022-09-12T15:35:10.278Z,16.00
2022-09-12T15:37:37.115Z,16.10
2022-09-12T15:40:05.194Z,17.40
2022-09-12T15:42:32.215Z,17.00
2022-09-12T15:45:02.519Z,16.70
2022-09-12T15:47:35.616Z,17.10
2022-09-12T15:50:04.217Z,16.80
2022-09-12T15:52:31.777Z,17.60
2022-09-12T15:54:58.558Z,17.90
2022-09-12T15:57:25.504Z,18.30
2022-09-12T15:59:52.712Z,18.00
2022-09-12T16:02:19.513Z,18.20
2022-09-12T16:04:48.115Z,18.60
2022-09-12T16:07:15.050Z,19.70
2022-09-12T16:09:41.853Z,19.60
2022-09-12T16:12:09.810Z,21.20
2022-09-12T16:14:36.611Z,21.70
2022-09-12T16:17:03.425Z,21.80
2022-09-12T16:19:30.310Z,21.60
2022-09-12T16:21:57.124Z,21.90
2022-09-12T16:24:23.923Z,22.00
2022-09-12T16:26:50.771Z,22.60
2022-09-12T16:29:17.651Z,22.50
2022-09-12T16:31:44.508Z,23.10
2022-09-12T16:34:11.933Z,23.30
2022-09-12T16:36:38.758Z,23.30
2022-09-12T16:39:06.373Z,23.40
2022-09-12T16:41:33.291Z,23.80
2022-09-12T16:44:00.110Z,24.00
2022-09-12T16:46:30.907Z,24.20
2022-09-12T16:48:58.746Z,23.60
2022-09-12T16:51:31.897Z,23.70
2022-09-12T16:53:58.803Z,23.40
2022-09-12T16:56:25.862Z,23.20
2022-09-12T16:58:53.243Z,23.50
2022-09-12T17:01:26.040Z,23.00
2022-09-12T17:03:54.702Z,23.10
2022-09-12T17:06:21.997Z,23.10
2022-09-12T17:08:53.650Z,23.20
2022-09-12T17:11:26.943Z,23.60
2022-09-12T17:14:10.006Z,23.30
2022-09-12T17:16:39.790Z,23.80
2022-09-12T17:19:07.562Z,24.00
2022-09-12T17:21:35.407Z,24.20
2022-09-12T17:24:03.392Z,24.40
2022-09-12T17:26:30.230Z,24.40
2022-09-12T17:28:57.161Z,24.00
2022-09-12T17:31:24.151Z,24.30
2022-09-12T17:33:55.426Z,24.20
2022-09-12T17:36:22.794Z,24.20
2022-09-12T17:38:49.673Z,24.30
2022-09-12T17:41:19.802Z,24.70
2022-09-12T17:43:50.286Z,24.40
2022-09-12T17:46:20.564Z,24.70
2022-09-12T17:48:57.716Z,24.80
2022-09-12T17:51:26.667Z,24.80
2022-09-12T17:54:01.606Z,24.90
2022-09-12T17:56:30.834Z,24.90
2022-09-12T17:58:58.821Z,25.20
2022-09-12T18:01:44.950Z,25.30
2022-09-12T18:04:11.981Z,25.40
2022-09-12T18:06:40.103Z,25.30
2022-09-12T18:09:09.536Z,26.00
2022-09-12T18:11:36.591Z,25.80
2022-09-12T18:14:03.526Z,26.30
2022-09-12T18:16:31.592Z,26.50
2022-09-12T18:19:01.545Z,26.60
2022-09-12T18:21:29.463Z,27.00
2022-09-12T18:23:59.191Z,26.90
2022-09-12T18:26:27.741Z,27.20
2022-09-12T18:28:54.718Z,27.70
2022-09-12T18:31:25.001Z,27.60
2022-09-12T18:33:52.426Z,27.60
2022-09-12T18:36:20.045Z,28.10
2022-09-12T18:38:48.064Z,28.60
2022-09-12T18:41:20.750Z,28.20
2022-09-12T18:43:48.164Z,28.50
2022-09-12T18:46:19.444Z,29.30
2022-09-12T18:48:47.141Z,29.10
2022-09-12T18:51:16.717Z,29.20
2022-09-12T18:53:47.988Z,29.40
2022-09-12T18:56:14.983Z,29.80
2022-09-12T18:58:43.126Z,29.40
2022-09-12T19:01:10.763Z,29.90
2022-09-12T19:03:37.760Z,30.10
2022-09-12T19:06:13.915Z,30.50
2022-09-12T19:08:41.289Z,30.20
2022-09-12T19:11:09.325Z,30.90
2022-09-12T19:13:39.539Z,30.90
2022-09-12T19:16:11.598Z,31.20
2022-09-12T19:18:41.325Z,31.00
2022-09-12T19:21:18.429Z,31.00
2022-09-12T19:23:45.642Z,30.90
2022-09-12T19:26:19.697Z,31.20
2022-09-12T19:28:47.331Z,31.00
2022-09-12T19:31:23.258Z,31.70
2022-09-12T19:33:52.218Z,30.70
2022-09-12T19:36:44.409Z,31.40
2022-09-12T19:39:08.768Z,31.80
2022-09-12T19:41:36.198Z,31.50
2022-09-12T19:44:04.650Z,31.90
2022-09-12T19:46:31.926Z,32.40
2022-09-12T19:48:58.976Z,32.40
2022-09-12T19:51:26.449Z,32.50
2022-09-12T19:53:54.090Z,32.80
2022-09-12T19:56:21.738Z,32.70
2022-09-12T19:58:55.736Z,33.00
2022-09-12T20:01:29.202Z,33.20
2022-09-12T20:03:59.073Z,33.20
2022-09-12T20:06:26.897Z,33.60
2022-09-12T20:08:54.362Z,33.90
2022-09-12T20:11:23.539Z,33.90
2022-09-12T20:13:50.961Z,33.70
2022-09-12T20:16:29.056Z,33.50
2022-09-12T20:19:06.956Z,33.60
2022-09-12T20:21:36.023Z,33.20
2022-09-12T20:24:10.870Z,33.70
2022-09-12T20:26:38.012Z,33.50
2022-09-12T20:29:05.979Z,34.10
2022-09-12T20:31:33.492Z,34.50
2022-09-12T20:34:00.660Z,34.80
2022-09-12T20:36:27.731Z,34.90
2022-09-12T20:38:56.960Z,35.30
2022-09-12T20:41:25.093Z,35.10
2022-09-12T20:43:56.286Z,35.10
2022-09-12T20:46:24.800Z,35.20
2022-09-12T20:48:52.412Z,35.50
2022-09-12T20:51:20.380Z,35.90
2022-09-12T20:53:48.061Z,36.00
2022-09-12T20:56:15.194Z,36.30
2022-09-12T20:58:44.275Z,36.40
2022-09-12T21:01:13.566Z,36.50
2022-09-12T21:03:42.095Z,36.60
2022-09-12T21:06:10.612Z,36.60
2022-09-12T21:08:37.717Z,36.80
2022-09-12T21:11:05.419Z,37.30
2022-09-12T21:13:32.622Z,36.60
2022-09-12T21:16:05.306Z,36.60
2022-09-12T21:18:33.533Z,36.70
2022-09-12T21:21:00.454Z,36.70
2022-09-12T21:23:28.944Z,37.00
2022-09-12T21:25:55.775Z,37.10
2022-09-12T21:28:22.818Z,37.20
2022-09-12T21:30:50.481Z,37.30
2022-09-12T21:33:19.034Z,37.20
2022-09-12T21:35:47.519Z,37.50
2022-09-12T21:38:19.067Z,37.50
2022-09-12T21:40:46.945Z,37.40
2022-09-12T21:43:14.360Z,37.70
2022-09-12T21:45:41.225Z,37.80
2022-09-12T21:48:08.466Z,38.10
2022-09-12T21:50:35.594Z,38.00
2022-09-12T21:53:02.537Z,38.10
2022-09-12T21:55:29.446Z,38.10
2022-09-12T21:57:56.645Z,38.50
2022-09-12T22:00:23.929Z,38.30
2022-09-12T22:02:50.913Z,38.60
2022-09-12T22:05:18.391Z,38.50
2022-09-12T22:07:45.237Z,39.00
2022-09-12T22:10:12.065Z,39.00
2022-09-12T22:12:42.858Z,39.40
2022-09-12T22:15:36.336Z,39.70
2022-09-12T22:17:59.839Z,39.50
2022-09-12T22:20:26.727Z,40.30
2022-09-12T22:23:12.297Z,40.50
2022-09-12T22:25:39.367Z,40.10
2022-09-12T22:28:06.196Z,40.60
2022-09-12T22:30:33.095Z,40.70
2022-09-12T22:32:59.922Z,41.00
2022-09-12T22:35:26.744Z,41.00
2022-09-12T22:37:53.567Z,40.80
2022-09-12T22:40:22.764Z,40.60
2022-09-12T22:42:52.365Z,40.70
2022-09-12T22:45:19.937Z,41.30
2022-09-12T22:47:47.094Z,40.80
2022-09-12T22:50:14.175Z,41.10
2022-09-12T22:52:41.671Z,41.30
2022-09-12T22:55:08.876Z,41.10
2022-09-12T22:57:35.809Z,41.10
2022-09-12T23:00:07.005Z,41.70
2022-09-12T23:02:34.943Z,41.80
2022-09-12T23:05:02.701Z,41.70
2022-09-12T23:07:29.547Z,42.00
2022-09-12T23:09:56.330Z,42.00
2022-09-12T23:12:23.282Z,42.10
2022-09-12T23:14:50.089Z,42.20
2022-09-12T23:17:16.976Z,41.90
2022-09-12T23:19:43.837Z,41.80
2022-09-12T23:22:10.763Z,42.30
2022-09-12T23:24:38.335Z,42.30
2022-09-12T23:27:06.033Z,42.30
2022-09-12T23:29:35.326Z,42.80
2022-09-12T23:32:05.153Z,43.00
2022-09-12T23:34:32.706Z,42.90
2022-09-12T23:37:00.141Z,42.90
2022-09-12T23:39:27.021Z,42.90
2022-09-12T23:41:53.771Z,43.30
2022-09-12T23:44:20.565Z,43.10
2022-09-12T23:46:47.385Z,43.40
2022-09-12T23:49:14.178Z,43.40
2022-09-12T23:51:40.949Z,43.60
2022-09-12T23:54:08.708Z,43.50
2022-09-12T23:56:35.564Z,43.70
2022-09-12T23:59:02.364Z,43.60
